Time;durP1;ratioP1;P1;durP2;ratioP2;P2;SDS_P1;SDS_P2;PMS_P1;PMS_P2;Temp;Humidity;BMP_temperature;BMP_pressure;BME280_temperature;BME280_humidity;BME280_pressure;Samples;Min_cycle;Max_cycle;Signal;HPM_P1;HPM_P2
2022/09/26 00:01:46;;;;;;;;;50.33;42.33;;;;;13.18;100.00;99010.06;6312030;20;2856615;-57
2022/09/26 00:04:28;;;;;;;;;47.67;40.00;;;;;13.04;100.00;99002.28;6313075;20;2854700;-55
2022/09/26 00:07:00;;;;;;;;;48.00;40.00;;;;;13.08;100.00;98992.94;6311961;20;3596110;-57
2022/09/26 00:09:29;;;;;;;;;51.00;40.00;;;;;13.02;100.00;98998.88;6282140;20;2848200;-54
2022/09/26 00:11:58;;;;;;;;;47.67;40.00;;;;;12.96;100.00;98995.69;6278741;20;2850386;-55
2022/09/26 00:14:29;;;;;;;;;49.33;38.00;;;;;12.93;100.00;98987.88;6315437;20;3608693;-56
2022/09/26 00:16:58;;;;;;;;;49.00;40.00;;;;;13.05;100.00;98990.53;6278345;20;2845086;-57
2022/09/26 00:19:26;;;;;;;;;49.00;40.50;;;;;13.12;100.00;98999.81;6280770;20;2846305;-55
2022/09/26 00:21:55;;;;;;;;;52.00;41.50;;;;;13.08;100.00;98992.94;6278559;20;2854443;-57
2022/09/26 00:24:24;;;;;;;;;49.67;40.67;;;;;13.18;100.00;99002.00;6280721;20;2848230;-55
2022/09/26 00:26:54;;;;;;;;;47.33;40.33;;;;;13.26;100.00;99002.22;6310586;20;2855567;-54
2022/09/26 00:29:23;;;;;;;;;52.67;43.00;;;;;13.24;100.00;99004.16;6315412;20;3608691;-55
2022/09/26 00:31:52;;;;;;;;;47.67;39.00;;;;;13.05;100.00;98996.75;6275307;20;2844179;-53
2022/09/26 00:34:21;;;;;;;;;50.00;41.00;;;;;12.93;100.00;99006.72;6315038;20;3592967;-56
2022/09/26 00:36:51;;;;;;;;;55.33;43.33;;;;;13.02;100.00;98997.03;6276512;20;3618968;-56
2022/09/26 00:39:20;;;;;;;;;52.00;44.00;;;;;13.24;100.00;98985.28;6314012;20;3590848;-56
2022/09/26 00:41:49;;;;;;;;;60.33;47.00;;;;;13.07;100.00;98980.47;6278610;20;3618165;-58
2022/09/26 00:44:45;;;;;;;;;71.67;61.00;;;;;12.83;100.00;98976.13;6312801;20;3622178;-56
2022/09/26 00:47:38;;;;;;;;;56.33;46.33;;;;;13.06;100.00;98968.84;6279685;20;3606619;-57
2022/09/26 00:50:32;;;;;;;;;66.33;53.00;;;;;13.11;100.00;98966.63;6311374;20;3622301;-56
2022/09/26 00:53:27;;;;;;;;;79.33;67.67;;;;;12.96;100.00;98974.13;6274733;20;3671140;-56
2022/09/26 00:56:08;;;;;;;;;66.33;53.67;;;;;12.83;100.00;98962.66;6276323;20;3608639;-57
2022/09/26 00:59:26;;;;;;;;;62.67;49.67;;;;;13.05;100.00;98958.19;6307875;20;3624741;-55
2022/09/26 01:01:58;;;;;;;;;60.33;47.33;;;;;13.05;100.00;98950.09;6274297;20;3629442;-56
2022/09/26 01:04:30;;;;;;;;;54.67;45.00;;;;;13.05;100.00;98948.25;6311533;20;3605484;-54
2022/09/26 01:07:07;;;;;;;;;64.00;50.67;;;;;13.02;100.00;98934.19;6275246;20;3618981;-55
2022/09/26 01:09:37;;;;;;;;;55.67;46.33;;;;;12.98;100.00;98932.72;6312129;20;3618084;-55
2022/09/26 01:12:07;;;;;;;;;55.00;44.50;;;;;13.04;100.00;98921.44;6273580;20;2453472;-52
2022/09/26 01:14:40;;;;;;;;;57.33;46.33;;;;;12.93;100.00;98928.59;6278629;20;3618058;-57
2022/09/26 01:17:11;;;;;;;;;59.33;46.33;;;;;12.88;100.00;98925.41;6306196;20;3617961;-55
2022/09/26 01:20:01;;;;;;;;;63.67;50.00;;;;;12.96;100.00;98931.03;6311055;20;3637890;-57
2022/09/26 01:23:01;;;;;;;;;62.67;49.67;;;;;12.80;100.00;98925.22;6307922;20;3630488;-53
2022/09/26 01:26:16;;;;;;;;;58.33;46.67;;;;;12.90;100.00;98926.16;6277634;20;3606558;-55
2022/09/26 01:29:33;;;;;;;;;59.00;47.67;;;;;12.89;100.00;98928.97;6311080;20;3614857;-55
2022/09/26 01:32:48;;;;;;;;;58.33;46.33;;;;;12.98;100.00;98917.44;6276766;20;3624313;-54
2022/09/26 01:36:01;;;;;;;;;61.67;50.67;;;;;12.98;100.00;98905.78;6311940;20;3605508;-57
2022/09/26 01:38:59;;;;;;;;;64.00;51.00;;;;;12.92;100.00;98912.53;6310659;20;3629449;-56
2022/09/26 01:42:18;;;;;;;;;71.50;55.50;;;;;12.93;100.00;98893.56;6309684;20;3645186;-55
2022/09/26 01:45:06;;;;;;;;;65.67;53.00;;;;;12.93;100.00;98884.63;6307232;20;3626476;-54
2022/09/26 01:48:00;;;;;;;;;61.67;50.00;;;;;12.88;100.00;98892.25;6275004;20;3621179;-56
2022/09/26 01:50:54;;;;;;;;;62.33;49.33;;;;;12.91;100.00;98900.91;6277326;20;3609851;-57
2022/09/26 01:54:05;;;;;;;;;60.33;47.67;;;;;12.86;100.00;98903.13;6310727;20;3621117;-56
2022/09/26 01:56:38;;;;;;;;;59.33;49.00;;;;;13.02;100.00;98902.69;6274770;20;3614992;-52
2022/09/26 01:59:29;;;;;;;;;59.00;47.00;;;;;12.80;100.00;98913.59;6308074;20;3623221;-51
2022/09/26 02:02:09;;;;;;;;;59.33;48.00;;;;;12.82;100.00;98920.56;6311057;20;3612827;-53
2022/09/26 02:04:42;;;;;;;;;60.00;49.00;;;;;12.89;100.00;98916.34;6277824;20;3619030;-53
2022/09/26 02:07:19;;;;;;;;;56.67;46.67;;;;;13.08;100.00;98907.56;6307884;20;2869126;-55
2022/09/26 02:09:58;;;;;;;;;58.33;47.00;;;;;13.07;100.00;98902.31;6308588;20;3606608;-52
2022/09/26 02:12:35;;;;;;;;;60.67;49.67;;;;;12.79;100.00;98901.94;6301769;20;3603498;-54
2022/09/26 02:15:13;;;;;;;;;60.67;49.00;;;;;12.77;100.00;98898.53;6301823;20;3612762;-54
2022/09/26 02:17:51;;;;;;;;;58.67;48.00;;;;;12.80;100.00;98898.28;6305486;20;3597238;-56
2022/09/26 02:20:31;;;;;;;;;60.33;50.00;;;;;12.98;100.00;98877.00;6276518;20;3621109;-56
2022/09/26 02:23:04;;;;;;;;;62.33;50.00;;;;;12.88;100.00;98876.06;6309982;20;3602357;-55
2022/09/26 02:25:34;;;;;;;;;58.67;46.00;;;;;13.01;100.00;98865.13;6272804;20;3626289;-55
2022/09/26 02:28:04;;;;;;;;;58.00;47.33;;;;;13.06;100.00;98869.13;6309446;20;3623208;-53
2022/09/26 02:30:35;;;;;;;;;59.67;47.67;;;;;13.05;100.00;98874.63;6278953;20;3595066;-55
2022/09/26 02:33:04;;;;;;;;;58.33;48.00;;;;;13.05;100.00;98880.03;6303738;20;3616359;-54
2022/09/26 02:38:31;;;;;;;;;58.00;47.33;;;;;13.05;100.00;98882.72;6274920;20;3623239;-54
2022/09/26 02:41:50;;;;;;;;;58.67;47.33;;;;;12.99;100.00;98877.88;6308974;20;3618579;-52
2022/09/26 02:44:44;;;;;;;;;58.67;48.00;;;;;13.07;100.00;98862.75;6307071;20;3623226;-53
2022/09/26 02:47:39;;;;;;;;;54.67;45.67;;;;;12.90;100.00;98869.56;6273369;20;2856528;-52
2022/09/26 02:50:37;;;;;;;;;58.33;48.00;;;;;12.88;100.00;98884.16;6310394;20;3613943;-51
2022/09/26 02:53:44;;;;;;;;;60.33;49.00;;;;;12.84;100.00;98875.47;6304164;20;3617957;-53
2022/09/26 02:56:40;;;;;;;;;57.67;48.00;;;;;12.88;100.00;98847.28;6271872;20;3626343;-53
2022/09/26 03:00:17;;;;;;;;;59.00;47.33;;;;;12.98;100.00;98862.66;6307026;20;3627431;-57
2022/09/26 03:03:39;;;;;;;;;59.67;48.67;;;;;12.84;100.00;98872.75;6305379;20;2864957;-56
2022/09/26 03:06:17;;;;;;;;;59.00;49.67;;;;;12.87;100.00;98871.66;6301097;20;3612782;-58
2022/09/26 03:08:49;;;;;;;;;60.00;48.67;;;;;12.82;100.00;98868.50;6307516;20;3620074;-58
2022/09/26 03:11:24;;;;;;;;;59.00;46.67;;;;;12.81;100.00;98870.34;6309062;20;3628410;-58
2022/09/26 03:13:57;;;;;;;;;58.00;47.00;;;;;12.68;100.00;98873.19;6301436;20;2852495;-58
2022/09/26 03:16:33;;;;;;;;;60.33;48.33;;;;;12.67;100.00;98876.03;6310495;20;3609006;-58
2022/09/26 03:19:26;;;;;;;;;61.33;49.00;;;;;12.92;100.00;98881.06;6272465;20;3615969;-56
2022/09/26 03:21:56;;;;;;;;;58.00;47.33;;;;;13.05;100.00;98880.88;6305066;20;3630550;-56
2022/09/26 03:24:26;;;;;;;;;59.00;47.33;;;;;13.06;100.00;98895.19;6305231;20;3605462;-57
2022/09/26 03:26:55;;;;;;;;;58.00;45.67;;;;;12.81;100.00;98896.44;6305843;20;3620029;-54
2022/09/26 03:29:25;;;;;;;;;57.00;46.33;;;;;12.77;100.00;98892.25;6276195;20;3624194;-57
2022/09/26 03:31:55;;;;;;;;;61.33;48.33;;;;;12.79;100.00;98880.38;6304778;20;3603433;-53
2022/09/26 03:34:26;;;;;;;;;60.00;48.00;;;;;12.73;100.00;98870.13;6305284;20;3622122;-57
2022/09/26 03:36:55;;;;;;;;;56.33;46.33;;;;;12.78;100.00;98858.97;6305352;20;2858771;-55
2022/09/26 03:39:26;;;;;;;;;59.88;47.88;;;;;12.81;100.00;98856.00;6326113;20;3629577;-55
2022/09/26 03:41:56;;;;;;;;;55.00;45.00;;;;;12.65;100.00;98856.44;6274271;20;2854399;-56
2022/09/26 03:44:25;;;;;;;;;57.00;45.33;;;;;12.69;100.00;98848.00;6275774;20;3624581;-56
2022/09/26 03:46:54;;;;;;;;;53.67;44.67;;;;;12.85;100.00;98841.28;6306076;20;3597733;-55
2022/09/26 03:49:23;;;;;;;;;58.67;48.00;;;;;12.94;100.00;98846.75;6275982;20;3623183;-58
2022/09/26 03:51:53;;;;;;;;;55.00;45.00;;;;;12.95;100.00;98848.50;6306990;20;2867085;-54
2022/09/26 03:54:22;;;;;;;;;57.67;47.67;;;;;12.86;100.00;98843.88;6305684;20;2866018;-57
2022/09/26 03:56:51;;;;;;;;;50.00;42.00;;;;;12.95;100.00;98840.41;6305374;20;2850413;-57
2022/09/26 03:59:20;;;;;;;;;57.67;48.00;;;;;12.84;100.00;98835.03;6278510;20;3621191;-46
2022/09/26 04:01:49;;;;;;;;;57.00;47.00;;;;;12.78;100.00;98829.34;6304706;20;3606559;-46
2022/09/26 04:04:19;;;;;;;;;55.33;46.00;;;;;12.64;100.00;98822.44;6281033;20;2858743;-48
2022/09/26 04:06:50;;;;;;;;;61.00;48.00;;;;;12.73;100.00;98821.66;6310952;20;3628407;-46
2022/09/26 04:09:19;;;;;;;;;57.33;46.00;;;;;12.84;100.00;98821.56;6312609;20;3613040;-48
2022/09/26 04:11:51;;;;;;;;;57.67;47.33;;;;;12.72;100.00;98809.16;6304907;20;3619170;-47
2022/09/26 04:14:20;;;;;;;;;55.67;45.00;;;;;12.86;100.00;98792.69;6310765;20;3609660;-47
2022/09/26 04:16:50;;;;;;;;;56.33;47.00;;;;;12.83;100.00;98774.09;6277422;20;3611812;-46
2022/09/26 04:19:19;;;;;;;;;57.00;46.00;;;;;12.92;100.00;98765.19;6309691;20;2863974;-48
2022/09/26 04:21:49;;;;;;;;;57.00;46.33;;;;;12.98;100.00;98780.00;6312367;20;3619100;-48
2022/09/26 04:24:20;;;;;;;;;55.00;46.50;;;;;12.87;100.00;98788.13;6278898;20;2854785;-51
2022/09/26 04:26:49;;;;;;;;;55.67;45.33;;;;;12.75;100.00;98790.06;6315682;20;3613857;-47
2022/09/26 04:29:18;;;;;;;;;55.00;44.67;;;;;12.84;100.00;98788.41;6312985;20;3599322;-49
2022/09/26 04:31:48;;;;;;;;;59.00;45.33;;;;;12.94;100.00;98786.63;6277948;20;3618378;-46
2022/09/26 04:34:17;;;;;;;;;54.67;45.33;;;;;12.83;100.00;98789.41;6313322;20;3599429;-47
2022/09/26 04:36:53;;;;;;;;;64.00;51.00;;;;;12.68;100.00;98802.31;6280307;20;2872280;-46
2022/09/26 04:39:22;;;;;;;;;60.00;49.67;;;;;12.62;100.00;98802.84;6314815;20;3605497;-45
2022/09/26 04:41:52;;;;;;;;;60.67;49.00;;;;;12.66;100.00;98798.91;6281028;20;3620088;-48
2022/09/26 04:44:21;;;;;;;;;54.33;45.67;;;;;12.83;100.00;98787.56;6309465;20;2864914;-47
2022/09/26 04:46:50;;;;;;;;;56.00;46.00;;;;;12.67;100.00;98785.31;6307913;20;3606968;-50
2022/09/26 04:49:19;;;;;;;;;59.00;47.00;;;;;12.65;100.00;98783.72;6278257;20;3624656;-48
2022/09/26 04:51:49;;;;;;;;;55.00;46.67;;;;;12.64;100.00;98785.56;6309002;20;2852508;-47
2022/09/26 04:54:17;;;;;;;;;60.67;47.67;;;;;12.58;100.00;98780.69;6315307;20;3629577;-51
2022/09/26 04:56:47;;;;;;;;;56.67;46.67;;;;;12.76;100.00;98778.28;6275878;20;3609667;-49
2022/09/26 04:59:15;;;;;;;;;56.00;46.00;;;;;12.83;100.00;98768.69;6313606;20;3607580;-48
2022/09/26 05:01:45;;;;;;;;;55.33;47.00;;;;;12.88;100.00;98771.00;6277580;20;3619121;-48
2022/09/26 05:04:14;;;;;;;;;60.00;48.00;;;;;12.78;100.00;98770.94;6309755;20;3637035;-60
2022/09/26 05:06:43;;;;;;;;;55.00;46.00;;;;;12.82;100.00;98776.91;6312682;20;3607743;-59
2022/09/26 05:09:13;;;;;;;;;58.00;47.00;;;;;12.73;100.00;98774.00;6281479;20;3627352;-59
2022/09/26 05:11:42;;;;;;;;;59.67;49.00;;;;;12.62;100.00;98774.06;6310808;20;3610737;-59
2022/09/26 05:14:11;;;;;;;;;38.50;31.00;;;;;12.67;100.00;98771.00;6307143;20;2847290;-59
2022/09/26 05:16:40;;;;;;;;;53.00;44.00;;;;;12.62;100.00;98765.16;6279088;20;2860927;-59
2022/09/26 05:19:10;;;;;;;;;57.33;46.67;;;;;12.58;100.00;98774.44;6311532;20;3617011;-46
2022/09/26 05:21:41;;;;;;;;;56.67;46.00;;;;;12.74;100.00;98780.25;6311525;20;3612777;-48
2022/09/26 05:27:01;;;;;;;;;56.00;47.00;;;;;12.59;100.00;98777.03;6275995;20;2867219;-51
2022/09/26 05:29:31;;;;;;;;;58.00;48.00;;;;;12.75;100.00;98781.97;6306715;20;3613952;-53
2022/09/26 05:32:00;;;;;;;;;114.75;109.50;;;;;12.74;100.00;98796.41;6310451;20;4447525;-54
2022/09/26 05:34:30;;;;;;;;;58.00;46.33;;;;;12.67;100.00;98797.94;6304630;20;3624222;-50
2022/09/26 05:37:00;;;;;;;;;56.00;47.00;;;;;12.59;100.00;98797.72;6308052;20;3621206;-50
2022/09/26 05:42:18;;;;;;;;;57.33;45.00;;;;;12.54;100.00;98789.19;6311690;20;3610691;-53
2022/09/26 05:44:46;;;;;;;;;53.67;45.33;;;;;12.59;100.00;98784.25;6307243;20;3588014;-53
2022/09/26 05:47:16;;;;;;;;;59.33;48.67;;;;;12.69;100.00;98791.44;6270922;20;3615871;-55
2022/09/26 05:49:45;;;;;;;;;52.67;45.00;;;;;12.85;100.00;98792.78;6311157;20;3582621;-59
2022/09/26 05:52:14;;;;;;;;;54.00;44.33;;;;;12.68;100.00;98796.94;6308472;20;3603393;-59
2022/09/26 05:54:44;;;;;;;;;58.67;47.00;;;;;12.69;100.00;98786.03;6307749;20;3614874;-56
2022/09/26 05:57:13;;;;;;;;;56.67;46.00;;;;;12.78;100.00;98789.78;6309771;20;3603388;-54
2022/09/26 05:59:42;;;;;;;;;55.33;46.00;;;;;12.70;100.00;98785.03;6311915;20;3623629;-54
2022/09/26 06:02:12;;;;;;;;;56.00;45.67;;;;;12.65;100.00;98775.66;6274543;20;2862889;-59
2022/09/26 06:04:48;;;;;;;;;52.50;45.00;;;;;12.68;100.00;98754.69;6307518;20;2848314;-60
2022/09/26 06:07:17;;;;;;;;;52.67;45.00;;;;;12.63;100.00;98756.91;6279519;20;2870213;-60
2022/09/26 06:09:47;;;;;;;;;53.67;43.00;;;;;12.66;100.00;98767.44;6309150;20;2854446;-59
2022/09/26 06:12:18;;;;;;;;;59.00;48.00;;;;;12.68;100.00;98764.63;6309080;20;3621111;-59
2022/09/26 06:14:47;;;;;;;;;59.00;48.00;;;;;12.46;100.00;98761.06;6306553;20;3496195;-60
2022/09/26 06:17:17;;;;;;;;;60.00;49.00;;;;;12.64;100.00;98763.19;6309309;20;3613799;-59
2022/09/26 06:19:45;;;;;;;;;59.67;48.00;;;;;12.62;100.00;98768.69;6311661;20;3613784;-60
2022/09/26 06:22:14;;;;;;;;;63.00;51.00;;;;;12.74;100.00;98761.38;6281681;20;3613958;-60
2022/09/26 06:24:44;;;;;;;;;61.33;48.33;;;;;12.73;100.00;98752.47;6275902;20;3629450;-60
2022/09/26 06:27:13;;;;;;;;;62.33;50.67;;;;;12.73;100.00;98748.91;6308031;20;3618029;-60
2022/09/26 06:29:42;;;;;;;;;59.00;48.00;;;;;12.63;100.00;98746.16;6307014;20;3603428;-60
2022/09/26 06:32:11;;;;;;;;;64.00;52.00;;;;;12.82;100.00;98729.28;6279991;20;3624390;-60
2022/09/26 06:34:41;;;;;;;;;63.00;50.00;;;;;12.92;100.00;98724.78;6313064;20;3606948;-60
2022/09/26 06:37:09;;;;;;;;;63.00;52.00;;;;;13.02;100.00;98724.00;6277084;20;2752352;-60
2022/09/26 06:39:39;;;;;;;;;60.33;50.00;;;;;12.96;100.00;98734.31;6270390;20;3604436;-59
2022/09/26 06:42:08;;;;;;;;;62.00;50.00;;;;;12.83;100.00;98730.97;6277069;20;3605679;-60
2022/09/26 06:44:37;;;;;;;;;63.67;51.67;;;;;12.88;100.00;98717.13;6311015;20;3624222;-51
2022/09/26 06:47:05;;;;;;;;;63.67;51.67;;;;;13.02;100.00;98722.16;6280274;20;3626315;-54
2022/09/26 06:49:34;;;;;;;;;61.33;49.33;;;;;12.89;100.00;98730.44;6280289;20;3604523;-54
2022/09/26 06:52:04;;;;;;;;;62.33;50.67;;;;;12.86;100.00;98732.56;6280046;20;3613872;-53
2022/09/26 06:54:33;;;;;;;;;60.67;50.00;;;;;12.96;100.00;98745.09;6309729;20;3610704;-53
2022/09/26 06:57:02;;;;;;;;;73.00;59.33;;;;;12.92;100.00;98765.19;6310436;20;3634792;-52
2022/09/26 06:59:31;;;;;;;;;65.67;52.33;;;;;12.81;100.00;98765.28;6279589;20;3624296;-53
2022/09/26 07:02:00;;;;;;;;;63.00;49.67;;;;;12.88;100.00;98761.06;6279199;20;3621133;-60
2022/09/26 07:04:30;;;;;;;;;55.33;46.33;;;;;12.77;100.00;98763.84;6309098;20;2857667;-61
2022/09/26 07:06:59;;;;;;;;;61.33;50.00;;;;;13.04;100.00;98757.91;6309300;20;3609637;-47
2022/09/26 07:09:28;;;;;;;;;66.00;52.00;;;;;13.18;100.00;98754.00;6277775;20;3619095;-49
2022/09/26 07:11:58;;;;;;;;;66.67;54.00;;;;;13.05;100.00;98756.91;6313593;20;3588811;-48
2022/09/26 07:14:44;;;;;;;;;66.33;53.00;;;;;13.04;100.00;98763.31;6279615;20;3601368;-47
2022/09/26 07:17:21;;;;;;;;;64.00;49.67;;;;;13.15;100.00;98757.81;6311476;20;3633574;-49
2022/09/26 07:19:51;;;;;;;;;63.00;51.00;;;;;13.24;100.00;98758.84;6309714;20;3622280;-48
2022/09/26 07:22:20;;;;;;;;;62.00;49.33;;;;;13.30;100.00;98771.84;6310522;20;3612168;-47
2022/09/26 07:24:49;;;;;;;;;65.67;52.67;;;;;13.26;100.00;98770.41;6284173;20;3610047;-46
2022/09/26 07:27:18;;;;;;;;;64.00;52.00;;;;;13.14;100.00;98774.16;6278662;20;3603379;-45
2022/09/26 07:29:48;;;;;;;;;63.67;50.00;;;;;13.23;100.00;98775.19;6310001;20;3603493;-45
2022/09/26 07:32:17;;;;;;;;;66.33;52.67;;;;;13.25;100.00;98770.50;6311822;20;3617967;-45
2022/09/26 07:34:46;;;;;;;;;66.00;53.33;;;;;13.11;100.00;98774.38;6278764;20;3613929;-45
2022/09/26 07:37:16;;;;;;;;;62.33;51.00;;;;;13.15;100.00;98776.69;6272561;20;3612852;-46
2022/09/26 07:39:45;;;;;;;;;60.67;47.67;;;;;13.26;100.00;98769.50;6318708;20;3628386;-45
2022/09/26 07:42:20;;;;;;;;;60.33;50.00;;;;;13.36;100.00;98768.59;6286616;20;3621132;-45
2022/09/26 07:44:49;;;;;;;;;63.00;50.00;;;;;13.35;100.00;98774.16;6284546;20;3626308;-45
2022/09/26 07:50:27;;;;;;;;;60.33;47.00;;;;;13.62;100.00;98762.75;6313837;20;3628381;-60
2022/09/26 07:52:55;;;;;;;;;61.67;50.67;;;;;13.67;100.00;98768.59;6312501;20;3620061;-60
2022/09/26 07:55:27;;;;;;;;;57.67;47.33;;;;;13.84;100.00;98783.25;6280130;20;3613801;-60
2022/09/26 07:57:56;;;;;;;;;56.00;45.00;;;;;13.92;100.00;98782.56;6319733;20;3605458;-60
2022/09/26 08:00:29;;;;;;;;;59.00;46.00;;;;;13.82;100.00;98782.53;6282701;20;3620062;-61
2022/09/26 08:03:01;;;;;;;;;55.00;45.67;;;;;14.09;100.00;98786.47;6316328;20;3602351;-61
2022/09/26 08:05:31;;;;;;;;;55.00;45.33;;;;;14.33;100.00;98781.53;6280132;20;3591012;-61
2022/09/26 08:08:00;;;;;;;;;53.67;45.00;;;;;14.14;100.00;98787.75;6315568;20;3604455;-61
2022/09/26 08:10:33;;;;;;;;;53.67;45.33;;;;;14.07;100.00;98786.59;6284448;20;2858594;-61
2022/09/26 08:13:03;;;;;;;;;56.00;46.00;;;;;14.27;100.00;98774.84;6316210;20;3607637;-62
2022/09/26 08:15:32;;;;;;;;;54.67;45.33;;;;;14.14;100.00;98755.38;6318793;20;3611140;-61
2022/09/26 08:18:02;;;;;;;;;51.00;41.00;;;;;14.33;100.00;98761.78;6285938;20;2852962;-61
2022/09/26 08:20:31;;;;;;;;;52.33;44.00;;;;;14.49;100.00;98762.06;6315413;20;3612951;-62
2022/09/26 08:23:00;;;;;;;;;52.33;43.67;;;;;14.47;100.00;98753.25;6287319;20;3621117;-61
2022/09/26 08:25:28;;;;;;;;;53.00;43.67;;;;;14.88;100.00;98748.56;6286107;20;3606494;-61
2022/09/26 08:27:58;;;;;;;;;50.33;39.33;;;;;14.89;100.00;98759.22;6283342;20;3610776;-62
2022/09/26 08:30:30;;;;;;;;;48.33;41.00;;;;;14.83;100.00;98757.09;6317643;20;3578486;-55
2022/09/26 08:33:00;;;;;;;;;54.00;43.00;;;;;14.91;100.00;98769.88;6280537;20;2886967;-50
2022/09/26 08:35:37;;;;;;;;;56.00;45.33;;;;;15.02;100.00;98766.16;6316315;20;3608423;-55
2022/09/26 08:38:08;;;;;;;;;50.00;43.00;;;;;14.79;100.00;98773.72;6282950;20;3602376;-54
2022/09/26 08:41:13;;;;;;;;;53.00;42.00;;;;;14.81;100.00;98771.75;6314826;20;3610789;-57
2022/09/26 08:44:15;;;;;;;;;52.00;41.67;;;;;14.70;100.00;98776.31;6282066;20;3612956;-56
2022/09/26 08:47:03;;;;;;;;;46.50;39.00;;;;;14.55;100.00;98774.19;6277857;20;2858828;-55
2022/09/26 08:50:22;;;;;;;;;49.33;40.33;;;;;14.42;100.00;98774.41;6276373;20;2868251;-56
2022/09/26 08:53:04;;;;;;;;;50.00;41.33;;;;;14.39;100.00;98782.81;6311751;20;3605443;-56
2022/09/26 08:55:40;;;;;;;;;48.00;40.00;;;;;14.43;100.00;98771.59;6278183;20;2843085;-56
2022/09/26 08:58:27;;;;;;;;;50.33;40.00;;;;;14.42;100.00;98772.56;6276718;20;2850389;-48
2022/09/26 09:01:04;;;;;;;;;48.00;41.00;;;;;14.70;100.00;98778.16;6310376;20;3583596;-62
2022/09/26 09:04:20;;;;;;;;;45.00;34.00;;;;;14.91;100.00;98775.28;6276484;20;3611808;-55
2022/09/26 09:07:09;;;;;;;;;45.67;37.33;;;;;15.02;100.00;98772.41;6266567;20;3596136;-52
2022/09/26 09:09:38;;;;;;;;;49.00;41.67;;;;;14.65;100.00;98773.19;6308203;20;3607576;-49
2022/09/26 09:13:04;;;;;;;;;50.00;42.00;;;;;14.54;100.00;98773.31;6274506;20;3603368;-53
2022/09/26 09:16:03;;;;;;;;;46.33;39.67;;;;;14.62;100.00;98776.16;6304876;20;3605527;-54
2022/09/26 09:18:50;;;;;;;;;47.00;39.33;;;;;14.69;100.00;98777.31;6273593;20;3595086;-52
2022/09/26 09:21:30;;;;;;;;;50.00;42.00;;;;;14.93;100.00;98778.72;6312016;20;3609624;-61
2022/09/26 09:28:14;;;;;;;;;50.33;42.00;;;;;15.15;100.00;98778.38;6291855;20;3596129;-54
2022/09/26 09:31:01;;;;;;;;;48.50;40.00;;;;;15.17;100.00;98785.50;6278209;20;2859689;-52
2022/09/26 09:33:47;;;;;;;;;50.67;40.00;;;;;15.07;100.00;98785.50;6273778;20;3614837;-47
2022/09/26 09:36:44;;;;;;;;;52.33;42.00;;;;;15.17;100.00;98788.19;6307175;20;3604441;-61
2022/09/26 09:39:34;;;;;;;;;53.00;44.33;;;;;15.44;100.00;98787.41;6270703;20;3604553;-62
2022/09/26 09:42:28;;;;;;;;;50.67;42.67;;;;;15.11;100.00;98792.31;6309365;20;3606062;-61
2022/09/26 09:45:40;;;;;;;;;50.33;41.67;;;;;15.20;100.00;98782.50;6271913;20;3596103;-61
2022/09/26 09:48:12;;;;;;;;;47.75;40.63;;;;;15.08;100.00;98779.94;6327163;20;3611817;-61
2022/09/26 09:51:38;;;;;;;;;49.00;39.00;;;;;15.21;100.00;98781.50;6277011;20;3593018;-61
2022/09/26 09:55:14;;;;;;;;;46.00;39.00;;;;;15.36;100.00;98774.63;6307567;20;3598427;-61
2022/09/26 09:58:37;;;;;;;;;40.50;36.00;;;;;15.39;100.00;98762.66;6271068;20;2838005;-59
2022/09/26 10:01:41;;;;;;;;;45.00;36.00;;;;;15.85;100.00;98760.91;6271024;20;2851461;-62
2022/09/26 10:04:34;;;;;;;;;38.00;33.33;;;;;16.02;100.00;98762.81;6305587;20;3573198;-61
2022/09/26 10:07:04;;;;;;;;;45.00;34.50;;;;;16.19;100.00;98769.25;6267759;20;2856581;-61
2022/09/26 10:09:41;;;;;;;;;40.67;34.33;;;;;16.85;100.00;98763.47;6276868;20;3583768;-64
2022/09/26 10:12:19;;;;;;;;;45.67;35.00;;;;;17.08;100.00;98762.97;6275869;20;3603386;-61
2022/09/26 10:14:59;;;;;;;;;32.00;30.00;;;;;16.72;100.00;98763.00;6274732;20;2828446;-61
2022/09/26 10:17:28;;;;;;;;;30.33;28.00;;;;;16.57;100.00;98769.97;6306477;20;3609687;-61
2022/09/26 10:19:57;;;;;;;;;33.33;28.00;;;;;16.28;100.00;98771.03;6276353;20;3608589;-62
2022/09/26 10:22:43;;;;;;;;;34.33;30.00;;;;;16.20;100.00;98773.66;6277721;20;3577376;-62
2022/09/26 10:25:23;;;;;;;;;41.00;33.00;;;;;16.05;100.00;98777.91;6275529;20;3594116;-62
2022/09/26 10:27:56;;;;;;;;;38.33;34.33;;;;;16.07;100.00;98784.00;6270816;20;3607578;-62
2022/09/26 10:30:33;;;;;;;;;43.67;36.00;;;;;15.92;100.00;98762.84;6309647;20;3583718;-62
2022/09/26 10:33:03;;;;;;;;;47.00;37.67;;;;;15.89;100.00;98782.09;6275264;20;2861973;-63
2022/09/26 10:35:44;;;;;;;;;39.67;33.67;;;;;16.14;100.00;98785.09;6304978;20;3594242;-62
2022/09/26 10:38:26;;;;;;;;;52.00;42.67;;;;;16.41;100.00;98771.50;6265857;20;3594055;-61
2022/09/26 10:41:01;;;;;;;;;45.67;35.67;;;;;16.23;100.00;98765.22;6303233;20;3611723;-62
2022/09/26 10:43:36;;;;;;;;;37.67;33.00;;;;;16.14;100.00;98752.59;6273211;20;3614946;-62
2022/09/26 10:46:23;;;;;;;;;34.33;31.33;;;;;16.34;100.00;98758.75;6299641;20;3596219;-62
2022/09/26 10:48:56;;;;;;;;;31.33;30.33;;;;;16.17;100.00;98752.31;6277349;20;3593102;-62
2022/09/26 10:51:41;;;;;;;;;34.00;30.00;;;;;15.98;100.00;98754.16;6271683;20;3617969;-62
2022/09/26 10:54:17;;;;;;;;;39.00;35.00;;;;;16.08;100.00;98753.22;6309766;20;3561702;-63
2022/09/26 10:56:53;;;;;;;;;40.67;33.67;;;;;15.90;100.00;98772.97;6272304;20;3607623;-63
2022/09/26 10:59:30;;;;;;;;;42.67;36.00;;;;;15.75;100.00;98785.31;6280356;20;3579450;-62
2022/09/26 11:02:02;;;;;;;;;38.00;32.33;;;;;15.75;100.00;98793.44;6280386;20;3616910;-63
2022/09/26 11:07:36;;;;;;;;;42.33;36.00;;;;;15.43;100.00;98802.78;6274992;20;3580473;-47
2022/09/26 11:10:17;;;;;;;;;43.00;36.00;;;;;15.34;100.00;98787.44;6271636;20;2850281;-47
2022/09/26 11:13:31;;;;;;;;;41.50;35.00;;;;;15.64;100.00;98788.16;6275161;20;2848255;-48
2022/09/26 11:16:11;;;;;;;;;45.00;36.00;;;;;15.45;100.00;98780.97;6277934;20;3594231;-47
2022/09/26 11:19:21;;;;;;;;;47.33;38.33;;;;;15.92;100.00;98775.53;6312303;20;3593131;-50
2022/09/26 11:22:05;;;;;;;;;42.00;36.00;;;;;15.97;100.00;98771.38;6280017;20;2850257;-52
2022/09/26 11:25:10;;;;;;;;;36.67;32.33;;;;;15.88;100.00;98772.28;6279647;20;3602422;-50
2022/09/26 11:28:22;;;;;;;;;35.67;32.00;;;;;15.70;100.00;98765.97;6311879;20;3595043;-51
2022/09/26 11:31:13;;;;;;;;;37.00;31.67;;;;;15.74;100.00;98776.31;6276052;20;3603457;-47
2022/09/26 11:33:44;;;;;;;;;36.67;32.00;;;;;15.76;100.00;98773.47;6310570;20;3606233;-47
2022/09/26 11:36:27;;;;;;;;;37.67;33.00;;;;;15.99;100.00;98772.06;6281859;20;3614832;-54
2022/09/26 11:38:56;;;;;;;;;37.33;32.00;;;;;16.17;100.00;98769.41;6279079;20;3602332;-55
2022/09/26 11:42:06;;;;;;;;;38.67;30.67;;;;;16.19;100.00;98772.81;6278323;20;3614004;-54
2022/09/26 11:44:57;;;;;;;;;36.00;33.00;;;;;16.26;100.00;98773.03;6277637;20;3612873;-54
2022/09/26 11:48:05;;;;;;;;;30.67;28.33;;;;;16.33;100.00;98771.44;6280697;20;3599258;-57
2022/09/26 11:51:07;;;;;;;;;31.67;30.33;;;;;16.62;100.00;98760.38;6278284;20;3591942;-55
2022/09/26 11:53:47;;;;;;;;;32.33;31.67;;;;;16.91;100.00;98774.72;6279384;20;3592958;-56
2022/09/26 11:57:33;;;;;;;;;34.33;30.67;;;;;17.03;100.00;98765.28;6281281;20;3590904;-54
2022/09/26 12:00:28;;;;;;;;;34.00;28.67;;;;;17.41;99.14;98774.03;6275755;20;3611720;-57
2022/09/26 12:03:45;;;;;;;;;28.00;27.00;;;;;17.23;97.57;98772.22;6276992;20;3594101;-54
2022/09/26 12:06:21;;;;;;;;;27.33;25.00;;;;;17.27;97.89;98773.63;6281847;20;3583759;-58